sensor_id;sensor_type;location;lat;lon;timestamp;temperature;humidity
3208;DHT22;1616;52.394;9.756;2023-08-06T00:00:20;14.90;1.00
3208;DHT22;1616;52.394;9.756;2023-08-06T00:02:46;14.90;1.00
3208;DHT22;1616;52.394;9.756;2023-08-06T00:05:12;14.90;1.00
3208;DHT22;1616;52.394;9.756;2023-08-06T00:07:38;14.90;1.00
3208;DHT22;1616;52.394;9.756;2023-08-06T00:10:04;15.00;1.00
3208;DHT22;1616;52.394;9.756;2023-08-06T00:12:30;15.00;1.00
3208;DHT22;1616;52.394;9.756;2023-08-06T00:14:57;15.00;1.00
3208;DHT22;1616;52.394;9.756;2023-08-06T00:17:22;15.00;1.00
3208;DHT22;1616;52.394;9.756;2023-08-06T00:19:48;15.00;1.00
3208;DHT22;1616;52.394;9.756;2023-08-06T00:22:13;15.00;1.00
3208;DHT22;1616;52.394;9.756;2023-08-06T00:24:39;14.90;1.00
3208;DHT22;1616;52.394;9.756;2023-08-06T00:27:05;15.10;1.00
3208;DHT22;1616;52.394;9.756;2023-08-06T00:29:31;15.10;1.00
3208;DHT22;1616;52.394;9.756;2023-08-06T00:31:57;15.20;1.00
3208;DHT22;1616;52.394;9.756;2023-08-06T00:34:22;15.00;1.00
3208;DHT22;1616;52.394;9.756;2023-08-06T00:36:48;15.10;1.00
3208;DHT22;1616;52.394;9.756;2023-08-06T00:39:14;15.10;1.00
3208;DHT22;1616;52.394;9.756;2023-08-06T00:41:41;15.20;1.00
3208;DHT22;1616;52.394;9.756;2023-08-06T00:44:08;15.10;1.00
3208;DHT22;1616;52.394;9.756;2023-08-06T00:46:34;15.10;1.00
3208;DHT22;1616;52.394;9.756;2023-08-06T00:49:00;17.60;1.00
3208;DHT22;1616;52.394;9.756;2023-08-06T00:51:26;15.10;1.00
3208;DHT22;1616;52.394;9.756;2023-08-06T00:53:53;15.20;1.00
3208;DHT22;1616;52.394;9.756;2023-08-06T00:56:19;15.20;1.00
3208;DHT22;1616;52.394;9.756;2023-08-06T00:58:45;15.20;1.00
3208;DHT22;1616;52.394;9.756;2023-08-06T01:01:12;15.20;1.00
3208;DHT22;1616;52.394;9.756;2023-08-06T01:03:38;15.20;1.00
3208;DHT22;1616;52.394;9.756;2023-08-06T01:06:04;15.20;1.00
3208;DHT22;1616;52.394;9.756;2023-08-06T01:08:42;15.30;1.00
3208;DHT22;1616;52.394;9.756;2023-08-06T01:11:46;15.30;1.00
3208;DHT22;1616;52.394;9.756;2023-08-06T01:14:45;15.30;1.00
3208;DHT22;1616;52.394;9.756;2023-08-06T01:17:14;15.40;1.00
3208;DHT22;1616;52.394;9.756;2023-08-06T01:19:39;15.40;1.00
3208;DHT22;1616;52.394;9.756;2023-08-06T01:22:05;15.40;1.00
3208;DHT22;1616;52.394;9.756;2023-08-06T01:24:31;15.40;1.00
3208;DHT22;1616;52.394;9.756;2023-08-06T01:27:21;15.40;1.00
3208;DHT22;1616;52.394;9.756;2023-08-06T01:30:03;15.40;1.00
3208;DHT22;1616;52.394;9.756;2023-08-06T01:32:32;15.40;1.00
3208;DHT22;1616;52.394;9.756;2023-08-06T01:35:00;15.30;1.00
3208;DHT22;1616;52.394;9.756;2023-08-06T01:37:27;15.40;1.00
3208;DHT22;1616;52.394;9.756;2023-08-06T01:39:53;15.40;1.00
3208;DHT22;1616;52.394;9.756;2023-08-06T01:42:19;15.40;1.00
3208;DHT22;1616;52.394;9.756;2023-08-06T01:44:44;15.40;1.00
3208;DHT22;1616;52.394;9.756;2023-08-06T01:47:10;15.40;1.00
3208;DHT22;1616;52.394;9.756;2023-08-06T01:49:36;15.30;1.00
3208;DHT22;1616;52.394;9.756;2023-08-06T01:52:02;15.30;1.00
3208;DHT22;1616;52.394;9.756;2023-08-06T01:54:28;15.20;1.00
3208;DHT22;1616;52.394;9.756;2023-08-06T01:56:54;15.30;1.00
3208;DHT22;1616;52.394;9.756;2023-08-06T01:59:19;15.20;1.00
3208;DHT22;1616;52.394;9.756;2023-08-06T02:01:45;15.20;1.00
3208;DHT22;1616;52.394;9.756;2023-08-06T02:04:10;15.20;1.00
3208;DHT22;1616;52.394;9.756;2023-08-06T02:06:36;15.30;1.00
3208;DHT22;1616;52.394;9.756;2023-08-06T02:09:02;15.30;1.00
3208;DHT22;1616;52.394;9.756;2023-08-06T02:11:27;15.40;1.00
3208;DHT22;1616;52.394;9.756;2023-08-06T02:13:54;15.40;1.00
3208;DHT22;1616;52.394;9.756;2023-08-06T02:16:20;15.40;1.00
3208;DHT22;1616;52.394;9.756;2023-08-06T02:18:46;15.50;1.00
3208;DHT22;1616;52.394;9.756;2023-08-06T02:21:11;15.50;1.00
3208;DHT22;1616;52.394;9.756;2023-08-06T02:23:37;15.60;1.00
3208;DHT22;1616;52.394;9.756;2023-08-06T02:26:04;15.50;1.00
3208;DHT22;1616;52.394;9.756;2023-08-06T02:28:31;15.50;1.00
3208;DHT22;1616;52.394;9.756;2023-08-06T02:30:57;15.50;1.00
3208;DHT22;1616;52.394;9.756;2023-08-06T02:33:23;15.40;1.00
3208;DHT22;1616;52.394;9.756;2023-08-06T02:35:48;15.50;1.00
3208;DHT22;1616;52.394;9.756;2023-08-06T02:38:14;15.50;1.00
3208;DHT22;1616;52.394;9.756;2023-08-06T02:40:44;15.50;1.00
3208;DHT22;1616;52.394;9.756;2023-08-06T02:43:10;15.50;1.00
3208;DHT22;1616;52.394;9.756;2023-08-06T02:45:36;15.50;1.00
3208;DHT22;1616;52.394;9.756;2023-08-06T02:48:02;15.40;1.00
3208;DHT22;1616;52.394;9.756;2023-08-06T02:50:28;15.50;1.00
3208;DHT22;1616;52.394;9.756;2023-08-06T02:52:54;15.40;1.00
3208;DHT22;1616;52.394;9.756;2023-08-06T02:55:19;15.40;1.00
3208;DHT22;1616;52.394;9.756;2023-08-06T02:57:45;15.40;1.00
3208;DHT22;1616;52.394;9.756;2023-08-06T03:00:11;15.40;1.00
3208;DHT22;1616;52.394;9.756;2023-08-06T03:02:37;15.40;1.00
3208;DHT22;1616;52.394;9.756;2023-08-06T03:05:03;15.30;1.00
3208;DHT22;1616;52.394;9.756;2023-08-06T03:07:29;15.30;1.00
3208;DHT22;1616;52.394;9.756;2023-08-06T03:09:55;15.20;1.00
3208;DHT22;1616;52.394;9.756;2023-08-06T03:12:20;15.20;1.00
3208;DHT22;1616;52.394;9.756;2023-08-06T03:14:46;15.20;1.00
3208;DHT22;1616;52.394;9.756;2023-08-06T03:17:12;15.20;1.00
3208;DHT22;1616;52.394;9.756;2023-08-06T03:19:38;15.20;1.00
3208;DHT22;1616;52.394;9.756;2023-08-06T03:22:04;15.30;1.00
3208;DHT22;1616;52.394;9.756;2023-08-06T03:24:30;15.30;1.00
3208;DHT22;1616;52.394;9.756;2023-08-06T03:26:56;15.40;1.00
3208;DHT22;1616;52.394;9.756;2023-08-06T03:29:21;15.30;1.00
3208;DHT22;1616;52.394;9.756;2023-08-06T03:31:47;15.30;1.00
3208;DHT22;1616;52.394;9.756;2023-08-06T03:34:13;15.30;1.00
3208;DHT22;1616;52.394;9.756;2023-08-06T03:36:38;15.30;1.00
3208;DHT22;1616;52.394;9.756;2023-08-06T03:39:04;15.30;1.00
3208;DHT22;1616;52.394;9.756;2023-08-06T03:41:31;15.20;1.00
3208;DHT22;1616;52.394;9.756;2023-08-06T03:43:56;15.20;1.00
3208;DHT22;1616;52.394;9.756;2023-08-06T03:46:22;15.20;1.00
3208;DHT22;1616;52.394;9.756;2023-08-06T03:48:47;15.10;1.00
3208;DHT22;1616;52.394;9.756;2023-08-06T03:51:13;15.10;1.00
3208;DHT22;1616;52.394;9.756;2023-08-06T03:53:39;15.10;1.00
3208;DHT22;1616;52.394;9.756;2023-08-06T03:56:04;15.10;1.00
3208;DHT22;1616;52.394;9.756;2023-08-06T03:58:30;15.10;1.00
3208;DHT22;1616;52.394;9.756;2023-08-06T04:01:02;15.10;1.00
3208;DHT22;1616;52.394;9.756;2023-08-06T04:03:28;15.00;1.00
3208;DHT22;1616;52.394;9.756;2023-08-06T04:05:54;15.00;1.00
3208;DHT22;1616;52.394;9.756;2023-08-06T04:08:20;15.00;1.00
3208;DHT22;1616;52.394;9.756;2023-08-06T04:10:50;15.00;1.00
3208;DHT22;1616;52.394;9.756;2023-08-06T04:13:16;14.90;1.00
3208;DHT22;1616;52.394;9.756;2023-08-06T04:15:42;14.90;1.00
3208;DHT22;1616;52.394;9.756;2023-08-06T04:18:07;14.90;1.00
3208;DHT22;1616;52.394;9.756;2023-08-06T04:20:33;14.90;1.00
3208;DHT22;1616;52.394;9.756;2023-08-06T04:22:59;14.90;1.00
3208;DHT22;1616;52.394;9.756;2023-08-06T04:25:31;14.90;1.00
3208;DHT22;1616;52.394;9.756;2023-08-06T04:27:56;14.90;1.00
3208;DHT22;1616;52.394;9.756;2023-08-06T04:30:22;14.90;1.00
3208;DHT22;1616;52.394;9.756;2023-08-06T04:32:49;14.90;1.00
3208;DHT22;1616;52.394;9.756;2023-08-06T04:35:15;14.90;1.00
3208;DHT22;1616;52.394;9.756;2023-08-06T04:37:41;14.90;1.00
3208;DHT22;1616;52.394;9.756;2023-08-06T04:40:13;14.90;1.00
3208;DHT22;1616;52.394;9.756;2023-08-06T04:42:42;15.00;1.00
3208;DHT22;1616;52.394;9.756;2023-08-06T04:45:08;15.00;1.00
3208;DHT22;1616;52.394;9.756;2023-08-06T04:47:33;15.00;1.00
3208;DHT22;1616;52.394;9.756;2023-08-06T04:49:59;15.10;1.00
3208;DHT22;1616;52.394;9.756;2023-08-06T04:52:25;15.20;1.00
3208;DHT22;1616;52.394;9.756;2023-08-06T04:54:54;15.30;1.00
3208;DHT22;1616;52.394;9.756;2023-08-06T04:57:19;15.50;1.00
3208;DHT22;1616;52.394;9.756;2023-08-06T04:59:45;15.60;1.00
3208;DHT22;1616;52.394;9.756;2023-08-06T05:02:11;15.70;1.00
3208;DHT22;1616;52.394;9.756;2023-08-06T05:04:37;15.80;1.00
3208;DHT22;1616;52.394;9.756;2023-08-06T05:07:03;17.20;1.00
3208;DHT22;1616;52.394;9.756;2023-08-06T05:09:29;16.00;1.00
3208;DHT22;1616;52.394;9.756;2023-08-06T05:11:55;16.10;1.00
3208;DHT22;1616;52.394;9.756;2023-08-06T05:14:20;16.10;1.00
3208;DHT22;1616;52.394;9.756;2023-08-06T05:16:46;16.20;1.00
3208;DHT22;1616;52.394;9.756;2023-08-06T05:19:12;16.20;1.00
3208;DHT22;1616;52.394;9.756;2023-08-06T05:21:38;16.20;1.00
3208;DHT22;1616;52.394;9.756;2023-08-06T05:24:04;16.30;1.00
3208;DHT22;1616;52.394;9.756;2023-08-06T05:26:29;16.40;1.00
3208;DHT22;1616;52.394;9.756;2023-08-06T05:28:55;16.50;1.00
3208;DHT22;1616;52.394;9.756;2023-08-06T05:31:20;16.60;1.00
3208;DHT22;1616;52.394;9.756;2023-08-06T05:33:46;16.70;1.00
3208;DHT22;1616;52.394;9.756;2023-08-06T05:36:11;16.80;1.00
3208;DHT22;1616;52.394;9.756;2023-08-06T05:38:37;16.80;1.00
3208;DHT22;1616;52.394;9.756;2023-08-06T05:41:03;16.90;1.00
3208;DHT22;1616;52.394;9.756;2023-08-06T05:43:29;16.90;1.00
3208;DHT22;1616;52.394;9.756;2023-08-06T05:45:56;17.20;1.00
3208;DHT22;1616;52.394;9.756;2023-08-06T05:48:21;17.40;1.00
3208;DHT22;1616;52.394;9.756;2023-08-06T05:50:48;17.60;1.00
3208;DHT22;1616;52.394;9.756;2023-08-06T05:53:13;17.90;1.00
3208;DHT22;1616;52.394;9.756;2023-08-06T05:55:39;18.40;1.00
3208;DHT22;1616;52.394;9.756;2023-08-06T05:58:05;18.90;1.00
3208;DHT22;1616;52.394;9.756;2023-08-06T06:00:31;19.30;1.00
3208;DHT22;1616;52.394;9.756;2023-08-06T06:02:56;19.70;1.00
3208;DHT22;1616;52.394;9.756;2023-08-06T06:05:22;20.30;1.00
3208;DHT22;1616;52.394;9.756;2023-08-06T06:07:48;20.90;1.00
3208;DHT22;1616;52.394;9.756;2023-08-06T06:10:14;21.60;1.00
3208;DHT22;1616;52.394;9.756;2023-08-06T06:12:40;22.10;1.00
3208;DHT22;1616;52.394;9.756;2023-08-06T06:15:06;22.60;1.00
3208;DHT22;1616;52.394;9.756;2023-08-06T06:17:32;22.90;1.00
3208;DHT22;1616;52.394;9.756;2023-08-06T06:19:58;23.00;1.00
3208;DHT22;1616;52.394;9.756;2023-08-06T06:22:24;23.20;1.00
3208;DHT22;1616;52.394;9.756;2023-08-06T06:24:49;23.50;1.00
3208;DHT22;1616;52.394;9.756;2023-08-06T06:27:15;23.60;1.00
3208;DHT22;1616;52.394;9.756;2023-08-06T06:29:40;23.60;1.00
3208;DHT22;1616;52.394;9.756;2023-08-06T06:32:06;23.50;1.00
3208;DHT22;1616;52.394;9.756;2023-08-06T06:34:32;23.50;1.00
3208;DHT22;1616;52.394;9.756;2023-08-06T06:36:57;23.50;1.00
3208;DHT22;1616;52.394;9.756;2023-08-06T06:39:23;23.60;1.00
3208;DHT22;1616;52.394;9.756;2023-08-06T06:41:49;23.70;1.00
3208;DHT22;1616;52.394;9.756;2023-08-06T06:44:14;23.80;1.00
3208;DHT22;1616;52.394;9.756;2023-08-06T06:46:40;24.00;1.00
3208;DHT22;1616;52.394;9.756;2023-08-06T06:49:06;24.30;1.00
3208;DHT22;1616;52.394;9.756;2023-08-06T06:51:32;24.70;1.00
3208;DHT22;1616;52.394;9.756;2023-08-06T06:53:58;25.00;1.00
3208;DHT22;1616;52.394;9.756;2023-08-06T06:56:23;25.50;1.00
3208;DHT22;1616;52.394;9.756;2023-08-06T06:58:49;25.90;1.00
3208;DHT22;1616;52.394;9.756;2023-08-06T07:01:15;26.30;1.00
3208;DHT22;1616;52.394;9.756;2023-08-06T07:03:40;26.80;1.00
3208;DHT22;1616;52.394;9.756;2023-08-06T07:06:06;27.30;1.00
3208;DHT22;1616;52.394;9.756;2023-08-06T07:08:33;27.70;1.00
3208;DHT22;1616;52.394;9.756;2023-08-06T07:11:03;28.10;1.00
3208;DHT22;1616;52.394;9.756;2023-08-06T07:13:29;28.60;1.00
3208;DHT22;1616;52.394;9.756;2023-08-06T07:15:55;28.90;1.00
3208;DHT22;1616;52.394;9.756;2023-08-06T07:18:22;29.40;1.00
3208;DHT22;1616;52.394;9.756;2023-08-06T07:20:49;29.70;1.00
3208;DHT22;1616;52.394;9.756;2023-08-06T07:23:15;29.90;1.00
3208;DHT22;1616;52.394;9.756;2023-08-06T07:25:40;30.00;1.00
3208;DHT22;1616;52.394;9.756;2023-08-06T07:28:06;29.90;1.00
3208;DHT22;1616;52.394;9.756;2023-08-06T07:30:31;29.90;1.00
3208;DHT22;1616;52.394;9.756;2023-08-06T07:32:57;29.90;1.00
3208;DHT22;1616;52.394;9.756;2023-08-06T07:35:23;29.90;1.00
3208;DHT22;1616;52.394;9.756;2023-08-06T07:37:49;29.90;1.00
3208;DHT22;1616;52.394;9.756;2023-08-06T07:40:14;30.10;1.00
3208;DHT22;1616;52.394;9.756;2023-08-06T07:42:40;29.90;1.00
3208;DHT22;1616;52.394;9.756;2023-08-06T07:45:07;29.70;1.00
3208;DHT22;1616;52.394;9.756;2023-08-06T07:47:33;29.60;1.00
3208;DHT22;1616;52.394;9.756;2023-08-06T07:49:58;29.50;1.00
3208;DHT22;1616;52.394;9.756;2023-08-06T07:52:25;29.40;1.00
3208;DHT22;1616;52.394;9.756;2023-08-06T07:54:50;29.20;1.00
3208;DHT22;1616;52.394;9.756;2023-08-06T07:57:16;28.80;1.00
3208;DHT22;1616;52.394;9.756;2023-08-06T07:59:42;28.30;1.00
3208;DHT22;1616;52.394;9.756;2023-08-06T08:02:08;28.10;1.00
3208;DHT22;1616;52.394;9.756;2023-08-06T08:04:34;27.90;1.00
3208;DHT22;1616;52.394;9.756;2023-08-06T08:07:00;27.70;1.00
3208;DHT22;1616;52.394;9.756;2023-08-06T08:09:25;27.70;1.00
3208;DHT22;1616;52.394;9.756;2023-08-06T08:11:51;27.70;1.00
3208;DHT22;1616;52.394;9.756;2023-08-06T08:14:18;27.70;1.00
3208;DHT22;1616;52.394;9.756;2023-08-06T08:16:43;27.60;1.00
3208;DHT22;1616;52.394;9.756;2023-08-06T08:19:09;27.70;1.00
3208;DHT22;1616;52.394;9.756;2023-08-06T08:21:35;27.70;1.00
3208;DHT22;1616;52.394;9.756;2023-08-06T08:24:01;27.70;1.00
3208;DHT22;1616;52.394;9.756;2023-08-06T08:26:26;27.60;1.00
3208;DHT22;1616;52.394;9.756;2023-08-06T08:28:56;27.70;1.00
3208;DHT22;1616;52.394;9.756;2023-08-06T08:31:22;27.80;1.00
3208;DHT22;1616;52.394;9.756;2023-08-06T08:33:48;27.80;1.00
3208;DHT22;1616;52.394;9.756;2023-08-06T08:36:13;27.80;1.00
3208;DHT22;1616;52.394;9.756;2023-08-06T08:38:39;27.90;1.00
3208;DHT22;1616;52.394;9.756;2023-08-06T08:41:05;28.00;1.00
3208;DHT22;1616;52.394;9.756;2023-08-06T08:43:32;28.20;1.00
3208;DHT22;1616;52.394;9.756;2023-08-06T08:45:58;28.40;1.00
3208;DHT22;1616;52.394;9.756;2023-08-06T08:48:26;28.60;1.00
3208;DHT22;1616;52.394;9.756;2023-08-06T08:50:53;28.80;1.00
3208;DHT22;1616;52.394;9.756;2023-08-06T08:53:21;29.00;1.00
3208;DHT22;1616;52.394;9.756;2023-08-06T08:55:48;29.10;1.00
3208;DHT22;1616;52.394;9.756;2023-08-06T08:58:14;29.40;1.00
3208;DHT22;1616;52.394;9.756;2023-08-06T09:00:45;29.60;1.00
3208;DHT22;1616;52.394;9.756;2023-08-06T09:03:11;29.80;1.00
3208;DHT22;1616;52.394;9.756;2023-08-06T09:05:43;30.00;1.00
3208;DHT22;1616;52.394;9.756;2023-08-06T09:08:11;30.30;1.00
3208;DHT22;1616;52.394;9.756;2023-08-06T09:10:41;30.70;1.00
3208;DHT22;1616;52.394;9.756;2023-08-06T09:13:08;31.10;1.00
3208;DHT22;1616;52.394;9.756;2023-08-06T09:15:34;31.40;1.00
3208;DHT22;1616;52.394;9.756;2023-08-06T09:18:00;31.60;1.00
3208;DHT22;1616;52.394;9.756;2023-08-06T09:20:25;31.80;1.00
3208;DHT22;1616;52.394;9.756;2023-08-06T09:22:55;31.90;1.00
3208;DHT22;1616;52.394;9.756;2023-08-06T09:25:22;31.80;1.00
3208;DHT22;1616;52.394;9.756;2023-08-06T09:27:50;31.60;1.00
3208;DHT22;1616;52.394;9.756;2023-08-06T09:30:33;31.60;1.00
3208;DHT22;1616;52.394;9.756;2023-08-06T09:33:00;31.70;1.00
3208;DHT22;1616;52.394;9.756;2023-08-06T09:35:28;32.10;1.00
3208;DHT22;1616;52.394;9.756;2023-08-06T09:37:55;32.20;1.00
3208;DHT22;1616;52.394;9.756;2023-08-06T09:40:29;32.30;1.00
3208;DHT22;1616;52.394;9.756;2023-08-06T09:42:55;31.90;1.00
3208;DHT22;1616;52.394;9.756;2023-08-06T09:45:22;31.90;1.00
3208;DHT22;1616;52.394;9.756;2023-08-06T09:47:49;32.10;1.00
3208;DHT22;1616;52.394;9.756;2023-08-06T09:50:19;32.20;1.00
3208;DHT22;1616;52.394;9.756;2023-08-06T09:52:45;32.40;1.00
3208;DHT22;1616;52.394;9.756;2023-08-06T09:55:12;32.60;1.00
3208;DHT22;1616;52.394;9.756;2023-08-06T09:57:40;32.90;1.00
3208;DHT22;1616;52.394;9.756;2023-08-06T10:00:06;33.30;1.00
3208;DHT22;1616;52.394;9.756;2023-08-06T10:02:37;33.50;1.00
3208;DHT22;1616;52.394;9.756;2023-08-06T10:05:03;33.50;1.00
3208;DHT22;1616;52.394;9.756;2023-08-06T10:07:30;33.40;1.00
3208;DHT22;1616;52.394;9.756;2023-08-06T10:09:56;31.60;1.00
3208;DHT22;1616;52.394;9.756;2023-08-06T10:12:23;33.30;1.00
3208;DHT22;1616;52.394;9.756;2023-08-06T10:14:53;33.20;1.00
3208;DHT22;1616;52.394;9.756;2023-08-06T10:17:23;33.10;1.00
3208;DHT22;1616;52.394;9.756;2023-08-06T10:19:50;33.00;1.00
3208;DHT22;1616;52.394;9.756;2023-08-06T10:22:17;33.10;1.00
3208;DHT22;1616;52.394;9.756;2023-08-06T10:24:50;33.40;1.00
3208;DHT22;1616;52.394;9.756;2023-08-06T10:32:48;34.00;1.00
3208;DHT22;1616;52.394;9.756;2023-08-06T10:38:21;33.20;1.00
3208;DHT22;1616;52.394;9.756;2023-08-06T10:45:57;32.70;1.00
3208;DHT22;1616;52.394;9.756;2023-08-06T10:48:39;32.50;1.00
3208;DHT22;1616;52.394;9.756;2023-08-06T10:51:13;32.60;1.00
3208;DHT22;1616;52.394;9.756;2023-08-06T10:53:45;33.10;1.00
3208;DHT22;1616;52.394;9.756;2023-08-06T10:56:15;33.60;1.00
3208;DHT22;1616;52.394;9.756;2023-08-06T10:58:42;34.20;1.00
3208;DHT22;1616;52.394;9.756;2023-08-06T11:01:08;36.70;1.00
3208;DHT22;1616;52.394;9.756;2023-08-06T11:03:34;35.40;1.00
3208;DHT22;1616;52.394;9.756;2023-08-06T11:06:00;35.80;1.00
3208;DHT22;1616;52.394;9.756;2023-08-06T11:08:34;36.10;1.00
3208;DHT22;1616;52.394;9.756;2023-08-06T11:11:10;36.40;1.00
3208;DHT22;1616;52.394;9.756;2023-08-06T11:13:48;36.60;1.00
3208;DHT22;1616;52.394;9.756;2023-08-06T11:16:15;36.80;1.00
3208;DHT22;1616;52.394;9.756;2023-08-06T11:18:42;36.90;1.00
3208;DHT22;1616;52.394;9.756;2023-08-06T11:21:07;37.10;1.00
3208;DHT22;1616;52.394;9.756;2023-08-06T11:23:35;37.20;1.00
3208;DHT22;1616;52.394;9.756;2023-08-06T11:26:01;37.10;1.00
3208;DHT22;1616;52.394;9.756;2023-08-06T11:28:27;37.10;1.00
3208;DHT22;1616;52.394;9.756;2023-08-06T11:30:53;37.20;1.00
3208;DHT22;1616;52.394;9.756;2023-08-06T11:33:27;37.40;1.00
3208;DHT22;1616;52.394;9.756;2023-08-06T11:35:55;37.60;1.00
3208;DHT22;1616;52.394;9.756;2023-08-06T11:38:21;37.80;1.00
3208;DHT22;1616;52.394;9.756;2023-08-06T11:40:47;37.70;1.00
3208;DHT22;1616;52.394;9.756;2023-08-06T11:43:14;37.00;1.00
3208;DHT22;1616;52.394;9.756;2023-08-06T11:45:40;36.10;1.00
3208;DHT22;1616;52.394;9.756;2023-08-06T11:48:07;35.40;1.00
3208;DHT22;1616;52.394;9.756;2023-08-06T11:50:37;35.40;1.00
3208;DHT22;1616;52.394;9.756;2023-08-06T11:53:03;35.70;1.00
3208;DHT22;1616;52.394;9.756;2023-08-06T11:55:29;36.20;1.00
3208;DHT22;1616;52.394;9.756;2023-08-06T11:57:56;36.50;1.00
3208;DHT22;1616;52.394;9.756;2023-08-06T12:00:24;36.10;1.00
3208;DHT22;1616;52.394;9.756;2023-08-06T12:02:50;35.40;1.00
3208;DHT22;1616;52.394;9.756;2023-08-06T12:05:18;34.80;1.00
3208;DHT22;1616;52.394;9.756;2023-08-06T12:07:52;34.60;1.00
3208;DHT22;1616;52.394;9.756;2023-08-06T12:10:19;34.80;1.00
3208;DHT22;1616;52.394;9.756;2023-08-06T12:12:48;35.40;1.00
3208;DHT22;1616;52.394;9.756;2023-08-06T12:15:14;35.70;1.00
3208;DHT22;1616;52.394;9.756;2023-08-06T12:17:40;35.50;1.00
3208;DHT22;1616;52.394;9.756;2023-08-06T12:20:07;35.30;1.00
3208;DHT22;1616;52.394;9.756;2023-08-06T12:22:33;35.20;1.00
3208;DHT22;1616;52.394;9.756;2023-08-06T12:25:07;35.30;1.00
3208;DHT22;1616;52.394;9.756;2023-08-06T12:27:36;35.30;1.00
3208;DHT22;1616;52.394;9.756;2023-08-06T12:30:03;35.10;1.00
3208;DHT22;1616;52.394;9.756;2023-08-06T12:32:29;34.60;1.00
3208;DHT22;1616;52.394;9.756;2023-08-06T12:34:55;34.00;1.00
3208;DHT22;1616;52.394;9.756;2023-08-06T12:37:21;33.20;1.00
3208;DHT22;1616;52.394;9.756;2023-08-06T12:39:47;32.50;1.00
3208;DHT22;1616;52.394;9.756;2023-08-06T12:42:12;31.80;1.00
3208;DHT22;1616;52.394;9.756;2023-08-06T12:44:38;31.30;1.00
3208;DHT22;1616;52.394;9.756;2023-08-06T12:47:04;30.80;1.00
3208;DHT22;1616;52.394;9.756;2023-08-06T12:49:30;30.40;1.00
3208;DHT22;1616;52.394;9.756;2023-08-06T12:51:57;30.00;1.00
3208;DHT22;1616;52.394;9.756;2023-08-06T12:54:25;29.60;1.00
3208;DHT22;1616;52.394;9.756;2023-08-06T12:56:51;29.40;1.00
3208;DHT22;1616;52.394;9.756;2023-08-06T12:59:18;29.10;1.00
3208;DHT22;1616;52.394;9.756;2023-08-06T13:01:44;28.90;1.00
3208;DHT22;1616;52.394;9.756;2023-08-06T13:04:11;28.60;1.00
3208;DHT22;1616;52.394;9.756;2023-08-06T13:06:37;28.40;1.00
3208;DHT22;1616;52.394;9.756;2023-08-06T13:09:04;28.20;1.00
3208;DHT22;1616;52.394;9.756;2023-08-06T13:11:31;28.00;1.00
3208;DHT22;1616;52.394;9.756;2023-08-06T13:14:08;27.80;1.00
3208;DHT22;1616;52.394;9.756;2023-08-06T13:16:35;27.70;1.00
3208;DHT22;1616;52.394;9.756;2023-08-06T13:19:02;27.50;1.00
3208;DHT22;1616;52.394;9.756;2023-08-06T13:24:11;27.40;1.00
3208;DHT22;1616;52.394;9.756;2023-08-06T13:26:38;27.50;1.00
3208;DHT22;1616;52.394;9.756;2023-08-06T13:29:04;27.60;1.00
3208;DHT22;1616;52.394;9.756;2023-08-06T13:31:30;27.60;1.00
3208;DHT22;1616;52.394;9.756;2023-08-06T13:33:56;27.70;1.00
3208;DHT22;1616;52.394;9.756;2023-08-06T13:36:24;27.60;1.00
3208;DHT22;1616;52.394;9.756;2023-08-06T13:38:50;27.60;1.00
3208;DHT22;1616;52.394;9.756;2023-08-06T13:41:16;27.60;1.00
3208;DHT22;1616;52.394;9.756;2023-08-06T13:43:43;27.50;1.00
3208;DHT22;1616;52.394;9.756;2023-08-06T13:46:10;27.40;1.00
3208;DHT22;1616;52.394;9.756;2023-08-06T13:48:40;27.50;1.00
3208;DHT22;1616;52.394;9.756;2023-08-06T13:51:06;27.50;1.00
3208;DHT22;1616;52.394;9.756;2023-08-06T13:53:31;27.50;1.00
3208;DHT22;1616;52.394;9.756;2023-08-06T13:55:57;27.60;1.00
3208;DHT22;1616;52.394;9.756;2023-08-06T13:58:24;27.60;1.00
3208;DHT22;1616;52.394;9.756;2023-08-06T14:00:51;27.60;1.00
3208;DHT22;1616;52.394;9.756;2023-08-06T14:03:18;27.70;1.00
3208;DHT22;1616;52.394;9.756;2023-08-06T14:05:44;27.80;1.00
3208;DHT22;1616;52.394;9.756;2023-08-06T14:08:10;27.60;1.00
3208;DHT22;1616;52.394;9.756;2023-08-06T14:10:35;27.50;1.00
3208;DHT22;1616;52.394;9.756;2023-08-06T14:13:01;27.40;1.00
3208;DHT22;1616;52.394;9.756;2023-08-06T14:15:27;27.20;1.00
3208;DHT22;1616;52.394;9.756;2023-08-06T14:17:53;27.10;1.00
3208;DHT22;1616;52.394;9.756;2023-08-06T14:20:19;27.00;1.00
3208;DHT22;1616;52.394;9.756;2023-08-06T14:22:45;26.90;1.00
3208;DHT22;1616;52.394;9.756;2023-08-06T14:25:10;26.80;1.00
3208;DHT22;1616;52.394;9.756;2023-08-06T14:27:36;26.80;1.00
3208;DHT22;1616;52.394;9.756;2023-08-06T14:30:06;26.70;1.00
3208;DHT22;1616;52.394;9.756;2023-08-06T14:32:32;26.80;1.00
3208;DHT22;1616;52.394;9.756;2023-08-06T14:34:58;26.60;1.00
3208;DHT22;1616;52.394;9.756;2023-08-06T14:37:25;26.30;1.00
3208;DHT22;1616;52.394;9.756;2023-08-06T14:39:51;26.30;1.00
3208;DHT22;1616;52.394;9.756;2023-08-06T14:42:17;26.20;1.00
3208;DHT22;1616;52.394;9.756;2023-08-06T14:44:43;26.10;1.00
3208;DHT22;1616;52.394;9.756;2023-08-06T14:47:09;26.00;1.00
3208;DHT22;1616;52.394;9.756;2023-08-06T14:49:34;25.80;1.00
3208;DHT22;1616;52.394;9.756;2023-08-06T14:52:00;25.70;1.00
3208;DHT22;1616;52.394;9.756;2023-08-06T14:54:27;25.50;1.00
3208;DHT22;1616;52.394;9.756;2023-08-06T14:56:53;25.50;1.00
3208;DHT22;1616;52.394;9.756;2023-08-06T14:59:19;25.30;1.00
3208;DHT22;1616;52.394;9.756;2023-08-06T15:01:45;25.20;1.00
3208;DHT22;1616;52.394;9.756;2023-08-06T15:04:10;25.00;1.00
3208;DHT22;1616;52.394;9.756;2023-08-06T15:06:36;24.60;1.00
3208;DHT22;1616;52.394;9.756;2023-08-06T15:09:02;24.20;1.00
3208;DHT22;1616;52.394;9.756;2023-08-06T15:11:27;23.90;1.00
3208;DHT22;1616;52.394;9.756;2023-08-06T15:13:53;23.50;1.00
3208;DHT22;1616;52.394;9.756;2023-08-06T15:16:19;23.20;1.00
3208;DHT22;1616;52.394;9.756;2023-08-06T15:18:46;22.90;1.00
3208;DHT22;1616;52.394;9.756;2023-08-06T15:21:12;22.70;1.00
3208;DHT22;1616;52.394;9.756;2023-08-06T15:23:37;22.60;1.00
3208;DHT22;1616;52.394;9.756;2023-08-06T15:26:03;22.50;1.00
3208;DHT22;1616;52.394;9.756;2023-08-06T15:28:29;22.50;1.00
3208;DHT22;1616;52.394;9.756;2023-08-06T15:30:55;22.50;1.00
3208;DHT22;1616;52.394;9.756;2023-08-06T15:33:21;22.80;1.00
3208;DHT22;1616;52.394;9.756;2023-08-06T15:35:47;22.90;1.00
3208;DHT22;1616;52.394;9.756;2023-08-06T15:38:14;22.90;1.00
3208;DHT22;1616;52.394;9.756;2023-08-06T15:40:39;23.10;1.00
3208;DHT22;1616;52.394;9.756;2023-08-06T15:43:05;23.20;1.00
3208;DHT22;1616;52.394;9.756;2023-08-06T15:45:32;23.30;1.00
3208;DHT22;1616;52.394;9.756;2023-08-06T15:47:57;23.40;1.00
3208;DHT22;1616;52.394;9.756;2023-08-06T15:50:24;23.50;1.00
3208;DHT22;1616;52.394;9.756;2023-08-06T15:52:50;23.60;1.00
3208;DHT22;1616;52.394;9.756;2023-08-06T15:55:15;23.70;1.00
3208;DHT22;1616;52.394;9.756;2023-08-06T15:57:41;23.80;1.00
3208;DHT22;1616;52.394;9.756;2023-08-06T16:00:09;23.90;1.00
3208;DHT22;1616;52.394;9.756;2023-08-06T16:02:34;23.90;1.00
3208;DHT22;1616;52.394;9.756;2023-08-06T16:05:00;24.00;1.00
3208;DHT22;1616;52.394;9.756;2023-08-06T16:07:26;24.10;1.00
3208;DHT22;1616;52.394;9.756;2023-08-06T16:09:53;24.20;1.00
3208;DHT22;1616;52.394;9.756;2023-08-06T16:12:19;24.30;1.00
3208;DHT22;1616;52.394;9.756;2023-08-06T16:14:46;24.40;1.00
3208;DHT22;1616;52.394;9.756;2023-08-06T16:17:12;24.60;1.00
3208;DHT22;1616;52.394;9.756;2023-08-06T16:19:38;24.80;1.00
3208;DHT22;1616;52.394;9.756;2023-08-06T16:22:04;24.80;1.00
3208;DHT22;1616;52.394;9.756;2023-08-06T16:24:29;24.90;1.00
3208;DHT22;1616;52.394;9.756;2023-08-06T16:26:55;24.80;1.00
3208;DHT22;1616;52.394;9.756;2023-08-06T16:29:21;24.80;1.00